Time;durP1;ratioP1;P1;durP2;ratioP2;P2;SDS_P1;SDS_P2;PMS_P1;PMS_P2;Temp;Humidity;BMP_temperature;BMP_pressure;BME280_temperature;BME280_humidity;BME280_pressure;Samples;Min_cycle;Max_cycle;Signal;HPM_P1;HPM_P2
2022/11/22 00:00:06;;;;;;;10.23;7.80;;;;;;;;;;5007787;28;20042;-44
2022/11/22 00:02:32;;;;;;;15.45;8.23;;;;;;;;;;4995438;28;20034;-44
2022/11/22 00:04:58;;;;;;;14.15;8.25;;;;;;;;;;5003594;28;20050;-47
2022/11/22 00:07:23;;;;;;;10.55;8.35;;;;;;;;;;5006308;28;20041;-47
2022/11/22 00:09:48;;;;;;;9.23;8.13;;;;;;;;;;5000120;28;20030;-45
2022/11/22 00:12:14;;;;;;;11.18;8.43;;;;;;;;;;4995427;28;20042;-44
2022/11/22 00:14:39;;;;;;;10.07;7.82;;;;;;;;;;4996550;28;20030;-47
2022/11/22 00:17:05;;;;;;;11.48;8.25;;;;;;;;;;4995040;28;20054;-50
2022/11/22 00:19:30;;;;;;;11.82;7.88;;;;;;;;;;4995756;28;20093;-44
2022/11/22 00:21:55;;;;;;;7.90;7.07;;;;;;;;;;5001157;28;20130;-50
2022/11/22 00:24:21;;;;;;;11.52;7.68;;;;;;;;;;4999685;28;20049;-44
2022/11/22 00:26:46;;;;;;;10.38;7.88;;;;;;;;;;4993228;28;20100;-44
2022/11/22 00:29:13;;;;;;;8.75;7.45;;;;;;;;;;5009386;28;20037;-46
2022/11/22 00:31:39;;;;;;;11.55;7.95;;;;;;;;;;5004807;28;20116;-46
2022/11/22 00:34:04;;;;;;;8.63;7.57;;;;;;;;;;5007584;28;20076;-45
2022/11/22 00:36:29;;;;;;;10.30;7.50;;;;;;;;;;4999483;28;20037;-49
2022/11/22 00:38:55;;;;;;;8.95;6.90;;;;;;;;;;5004157;28;20042;-48
2022/11/22 00:41:20;;;;;;;7.30;6.60;;;;;;;;;;5002226;28;20035;-44
2022/11/22 00:43:46;;;;;;;6.68;6.00;;;;;;;;;;5007821;28;20034;-44
2022/11/22 00:46:11;;;;;;;10.98;6.22;;;;;;;;;;5001522;28;20117;-44
2022/11/22 00:48:36;;;;;;;6.75;5.65;;;;;;;;;;5002682;28;20380;-45
2022/11/22 00:51:02;;;;;;;8.40;5.65;;;;;;;;;;4995291;28;20029;-44
2022/11/22 00:53:27;;;;;;;7.97;5.90;;;;;;;;;;4996460;28;20510;-45
2022/11/22 00:55:52;;;;;;;9.60;5.30;;;;;;;;;;4996330;28;20081;-46
2022/11/22 00:58:18;;;;;;;7.68;5.68;;;;;;;;;;5010784;28;20044;-45
2022/11/22 01:00:43;;;;;;;9.27;4.88;;;;;;;;;;5001589;28;20399;-43
2022/11/22 01:03:12;;;;;;;8.13;6.05;;;;;;;;;;4995572;28;20031;-45
2022/11/22 01:05:38;;;;;;;9.18;4.65;;;;;;;;;;4997658;28;20529;-44
2022/11/22 01:08:05;;;;;;;6.97;4.13;;;;;;;;;;5002510;28;20091;-44
2022/11/22 01:10:30;;;;;;;6.97;4.55;;;;;;;;;;5003359;28;20034;-44
2022/11/22 01:12:56;;;;;;;5.55;3.75;;;;;;;;;;4999580;28;20418;-47
2022/11/22 01:15:22;;;;;;;10.77;4.50;;;;;;;;;;4997748;28;20038;-45
2022/11/22 01:17:47;;;;;;;4.55;4.13;;;;;;;;;;5003180;28;20493;-44
2022/11/22 01:20:13;;;;;;;7.38;4.65;;;;;;;;;;5005909;28;20472;-44
2022/11/22 01:22:38;;;;;;;6.90;4.35;;;;;;;;;;4999806;28;20108;-44
2022/11/22 01:25:04;;;;;;;6.93;4.28;;;;;;;;;;4996825;28;20112;-44
2022/11/22 01:27:29;;;;;;;6.20;4.05;;;;;;;;;;5000946;28;20058;-47
2022/11/22 01:29:54;;;;;;;8.38;4.97;;;;;;;;;;5002251;28;20038;-43
2022/11/22 01:32:20;;;;;;;10.35;5.78;;;;;;;;;;4994207;28;20383;-47
2022/11/22 01:34:45;;;;;;;10.35;5.38;;;;;;;;;;5005556;28;20074;-44
2022/11/22 01:37:11;;;;;;;7.78;6.15;;;;;;;;;;4997593;28;20073;-46
2022/11/22 01:39:36;;;;;;;9.60;6.07;;;;;;;;;;5000449;28;20042;-46
2022/11/22 01:42:01;;;;;;;6.22;5.32;;;;;;;;;;5002385;28;20041;-45
2022/11/22 01:44:29;;;;;;;7.80;5.90;;;;;;;;;;5006538;28;20678;-44
2022/11/22 01:47:21;;;;;;;6.95;5.63;;;;;;;;;;5004479;28;20040;-43
2022/11/22 01:49:55;;;;;;;9.88;6.38;;;;;;;;;;5001375;28;20038;-45
2022/11/22 01:52:24;;;;;;;11.93;6.22;;;;;;;;;;5006356;28;20073;-45
2022/11/22 01:54:55;;;;;;;9.43;6.28;;;;;;;;;;4998546;28;20046;-44
2022/11/22 01:57:29;;;;;;;10.82;6.43;;;;;;;;;;5001138;28;20030;-47
2022/11/22 02:00:02;;;;;;;9.63;6.40;;;;;;;;;;5006518;28;20061;-45
2022/11/22 02:02:28;;;;;;;10.18;6.60;;;;;;;;;;4999067;28;20419;-46
2022/11/22 02:04:56;;;;;;;12.40;7.53;;;;;;;;;;4997284;28;20046;-44
2022/11/22 02:07:31;;;;;;;10.20;6.82;;;;;;;;;;5007327;28;20026;-43
2022/11/22 02:09:56;;;;;;;8.30;4.88;;;;;;;;;;5001608;28;20569;-48
2022/11/22 02:12:28;;;;;;;6.57;4.95;;;;;;;;;;5007187;28;20042;-45
2022/11/22 02:14:54;;;;;;;7.05;4.70;;;;;;;;;;5001351;28;20042;-45
2022/11/22 02:17:19;;;;;;;15.15;4.65;;;;;;;;;;4998108;28;20112;-47
2022/11/22 02:19:47;;;;;;;6.53;4.13;;;;;;;;;;5004633;28;20054;-45
2022/11/22 02:22:20;;;;;;;6.10;4.63;;;;;;;;;;5004266;28;20034;-43
2022/11/22 02:24:52;;;;;;;4.63;4.00;;;;;;;;;;5002916;28;20042;-47
2022/11/22 02:27:17;;;;;;;5.60;4.25;;;;;;;;;;5007536;28;20528;-46
2022/11/22 02:29:43;;;;;;;4.28;3.88;;;;;;;;;;5000906;28;20047;-45
2022/11/22 02:32:08;;;;;;;8.98;4.60;;;;;;;;;;5002102;28;20509;-44
2022/11/22 02:34:45;;;;;;;5.50;3.55;;;;;;;;;;5008109;28;20049;-47
2022/11/22 02:37:15;;;;;;;4.10;3.60;;;;;;;;;;5007828;28;20405;-44
2022/11/22 02:39:43;;;;;;;5.35;3.60;;;;;;;;;;5008003;28;20069;-47
2022/11/22 02:42:08;;;;;;;3.88;3.58;;;;;;;;;;5003452;28;20481;-45
2022/11/22 02:44:34;;;;;;;3.42;3.13;;;;;;;;;;5006980;28;20189;-46
2022/11/22 02:46:59;;;;;;;7.13;3.33;;;;;;;;;;5005783;28;20087;-44
2022/11/22 02:49:25;;;;;;;4.30;3.15;;;;;;;;;;5003885;28;20042;-48
2022/11/22 02:51:51;;;;;;;4.30;2.70;;;;;;;;;;5008229;28;20113;-48
2022/11/22 02:54:17;;;;;;;3.88;2.63;;;;;;;;;;5006813;28;20069;-45
2022/11/22 02:56:42;;;;;;;2.70;2.50;;;;;;;;;;5005386;28;20080;-48
2022/11/22 02:59:08;;;;;;;3.40;2.83;;;;;;;;;;5001767;28;20439;-45
2022/11/22 03:01:33;;;;;;;4.55;2.30;;;;;;;;;;4998911;28;20030;-44
2022/11/22 03:03:59;;;;;;;3.50;2.33;;;;;;;;;;4998686;28;20049;-47
2022/11/22 03:06:24;;;;;;;4.68;2.22;;;;;;;;;;5007854;28;20022;-44
2022/11/22 03:08:49;;;;;;;3.70;2.28;;;;;;;;;;4999585;28;20030;-45
2022/11/22 03:11:15;;;;;;;3.40;2.30;;;;;;;;;;5004202;28;20022;-44
2022/11/22 03:13:40;;;;;;;3.83;1.88;;;;;;;;;;5003211;28;20516;-45
2022/11/22 03:16:06;;;;;;;5.55;2.28;;;;;;;;;;5005927;28;20116;-47
2022/11/22 03:18:35;;;;;;;4.00;2.17;;;;;;;;;;5002556;28;20026;-42
2022/11/22 03:21:06;;;;;;;3.33;2.10;;;;;;;;;;5003404;28;20026;-46
2022/11/22 03:23:32;;;;;;;2.00;1.80;;;;;;;;;;5004769;28;20034;-45
2022/11/22 03:25:57;;;;;;;3.20;2.10;;;;;;;;;;5004856;28;20042;-44
2022/11/22 03:28:23;;;;;;;2.22;1.90;;;;;;;;;;5004982;28;20088;-43
2022/11/22 03:30:48;;;;;;;2.65;1.95;;;;;;;;;;5007454;28;20038;-44
2022/11/22 03:33:13;;;;;;;5.03;1.80;;;;;;;;;;5001288;28;20037;-44
2022/11/22 03:35:39;;;;;;;2.90;1.75;;;;;;;;;;5000432;28;20420;-45
2022/11/22 03:38:04;;;;;;;3.45;1.67;;;;;;;;;;5005654;28;20034;-49
2022/11/22 03:40:30;;;;;;;5.97;1.75;;;;;;;;;;4994884;28;20403;-44
2022/11/22 03:42:59;;;;;;;2.78;1.65;;;;;;;;;;5003693;28;20486;-48
2022/11/22 03:45:24;;;;;;;1.92;1.67;;;;;;;;;;4998359;28;20054;-44
2022/11/22 03:47:50;;;;;;;7.00;2.20;;;;;;;;;;5011283;28;20072;-45
2022/11/22 03:50:15;;;;;;;10.35;1.60;;;;;;;;;;5007874;28;20084;-44
2022/11/22 03:52:40;;;;;;;2.03;1.40;;;;;;;;;;5002206;28;20030;-44
2022/11/22 03:55:06;;;;;;;7.82;1.80;;;;;;;;;;5000450;28;20399;-46
2022/11/22 03:57:31;;;;;;;6.93;2.05;;;;;;;;;;5002089;28;20034;-50
2022/11/22 03:59:57;;;;;;;3.60;1.63;;;;;;;;;;5004417;28;20076;-44
2022/11/22 04:02:22;;;;;;;6.55;1.88;;;;;;;;;;4993621;28;20018;-45
2022/11/22 04:04:47;;;;;;;4.60;1.70;;;;;;;;;;5001944;28;20057;-44
2022/11/22 04:07:13;;;;;;;2.55;1.60;;;;;;;;;;5004880;28;20057;-44
2022/11/22 04:09:38;;;;;;;4.32;1.67;;;;;;;;;;4993688;28;20058;-44
2022/11/22 04:12:04;;;;;;;4.10;1.50;;;;;;;;;;4998752;28;20035;-45
2022/11/22 04:17:13;;;;;;;2.65;1.70;;;;;;;;;;5009907;28;20045;-46
2022/11/22 04:21:32;;;;;;;3.60;1.60;;;;;;;;;;4999471;28;20475;-44
2022/11/22 04:22:24;;;;;;;2.95;1.48;;;;;;;;;;5002116;28;20045;-46
2022/11/22 04:27:33;;;;;;;6.65;1.85;;;;;;;;;;5003503;28;20536;-45
2022/11/22 04:29:58;;;;;;;3.13;1.63;;;;;;;;;;5008680;28;20041;-44
2022/11/22 04:35:08;;;;;;;2.72;1.50;;;;;;;;;;4999871;28;20481;-44
2022/11/22 04:37:33;;;;;;;4.32;1.70;;;;;;;;;;4998872;28;20033;-44
2022/11/22 04:39:58;;;;;;;5.53;1.50;;;;;;;;;;4998792;28;20037;-44
2022/11/22 04:45:08;;;;;;;7.82;1.92;;;;;;;;;;4999757;28;20053;-44
2022/11/22 04:53:02;;;;;;;5.22;1.80;;;;;;;;;;5007735;28;20079;-44
2022/11/22 04:55:27;;;;;;;6.63;1.85;;;;;;;;;;5001996;28;20715;-45
2022/11/22 04:57:52;;;;;;;2.97;1.52;;;;;;;;;;5001881;28;20058;-44
2022/11/22 05:00:18;;;;;;;4.20;1.83;;;;;;;;;;4993383;28;20066;-44
2022/11/22 05:02:43;;;;;;;3.95;1.70;;;;;;;;;;4999811;28;20666;-43
2022/11/22 05:05:09;;;;;;;5.03;1.90;;;;;;;;;;5004046;28;20473;-45
2022/11/22 05:07:34;;;;;;;3.13;1.65;;;;;;;;;;5007306;28;20177;-45
2022/11/22 05:09:59;;;;;;;4.03;1.40;;;;;;;;;;5040291;28;20049;-45
2022/11/22 05:12:25;;;;;;;3.70;1.80;;;;;;;;;;5003814;28;20596;-44
2022/11/22 05:14:50;;;;;;;5.35;2.00;;;;;;;;;;5004009;28;20049;-44
2022/11/22 05:17:15;;;;;;;2.53;1.70;;;;;;;;;;5006799;28;20026;-50
2022/11/22 05:19:41;;;;;;;5.57;1.45;;;;;;;;;;5002707;28;20371;-47
2022/11/22 05:22:07;;;;;;;6.72;1.55;;;;;;;;;;5005510;28;20026;-44
2022/11/22 05:24:32;;;;;;;4.80;2.53;;;;;;;;;;5007648;28;20042;-43
2022/11/22 05:26:57;;;;;;;6.97;2.20;;;;;;;;;;5005383;28;20038;-44
2022/11/22 05:29:23;;;;;;;4.55;1.80;;;;;;;;;;5005387;28;20046;-44
2022/11/22 05:31:48;;;;;;;6.45;1.90;;;;;;;;;;5004693;28;20014;-43
2022/11/22 05:34:13;;;;;;;3.95;1.67;;;;;;;;;;5003613;28;20038;-44
2022/11/22 05:36:39;;;;;;;3.50;1.50;;;;;;;;;;5005429;28;20021;-47
2022/11/22 05:39:04;;;;;;;4.30;1.40;;;;;;;;;;4997701;28;20487;-45
2022/11/22 05:41:29;;;;;;;6.60;1.75;;;;;;;;;;5006370;28;20038;-44
2022/11/22 05:43:55;;;;;;;8.07;1.67;;;;;;;;;;4997548;28;20068;-44
2022/11/22 05:46:23;;;;;;;3.85;1.48;;;;;;;;;;4996764;28;20103;-48
2022/11/22 05:48:49;;;;;;;7.50;1.77;;;;;;;;;;4997896;28;20030;-46
2022/11/22 05:51:16;;;;;;;3.42;1.95;;;;;;;;;;5008720;28;20410;-50
2022/11/22 05:53:43;;;;;;;4.32;1.95;;;;;;;;;;4993704;28;20494;-47
2022/11/22 05:56:16;;;;;;;5.55;2.38;;;;;;;;;;5004548;28;20116;-47
2022/11/22 05:58:43;;;;;;;5.07;2.65;;;;;;;;;;5003291;28;20382;-46
2022/11/22 06:01:10;;;;;;;4.40;2.70;;;;;;;;;;4998840;28;20038;-45
2022/11/22 06:03:36;;;;;;;7.28;2.92;;;;;;;;;;4999915;28;20153;-49
2022/11/22 06:06:03;;;;;;;4.60;2.20;;;;;;;;;;4997207;28;20124;-49
2022/11/22 06:08:30;;;;;;;3.72;1.80;;;;;;;;;;5006382;28;20029;-43
2022/11/22 06:11:03;;;;;;;3.55;1.60;;;;;;;;;;4996068;28;20391;-46
2022/11/22 06:13:32;;;;;;;4.43;1.50;;;;;;;;;;5001708;28;20029;-50
2022/11/22 06:16:00;;;;;;;3.10;2.10;;;;;;;;;;5001315;28;20046;-47
2022/11/22 06:18:26;;;;;;;5.15;1.58;;;;;;;;;;4998791;28;20022;-43
2022/11/22 06:20:56;;;;;;;6.80;2.10;;;;;;;;;;4993256;28;20045;-46
2022/11/22 06:23:21;;;;;;;2.88;1.40;;;;;;;;;;4994536;28;20109;-47
2022/11/22 06:25:47;;;;;;;6.30;1.90;;;;;;;;;;5003831;28;20172;-49
2022/11/22 06:28:12;;;;;;;4.50;1.63;;;;;;;;;;5004510;28;20034;-49
2022/11/22 06:30:37;;;;;;;3.05;1.50;;;;;;;;;;5004154;28;20025;-45
2022/11/22 06:33:03;;;;;;;3.42;1.73;;;;;;;;;;5003062;28;20084;-43
2022/11/22 06:35:28;;;;;;;2.65;1.30;;;;;;;;;;4998632;28;20122;-44
2022/11/22 06:37:53;;;;;;;4.45;1.80;;;;;;;;;;4999442;28;20026;-46
2022/11/22 06:40:19;;;;;;;6.13;1.85;;;;;;;;;;4995312;28;20069;-44
2022/11/22 06:42:44;;;;;;;4.88;1.70;;;;;;;;;;5001716;28;20033;-45
2022/11/22 06:45:10;;;;;;;2.72;1.20;;;;;;;;;;4997201;28;20082;-43
2022/11/22 06:47:36;;;;;;;2.85;1.15;;;;;;;;;;4998274;28;20033;-44
2022/11/22 06:50:01;;;;;;;6.38;1.65;;;;;;;;;;5002748;28;20758;-44
2022/11/22 06:52:26;;;;;;;5.18;1.42;;;;;;;;;;5004144;28;20088;-47
2022/11/22 06:54:52;;;;;;;2.08;1.20;;;;;;;;;;5011118;28;20061;-45
2022/11/22 06:57:19;;;;;;;3.45;1.52;;;;;;;;;;5010617;28;20155;-45
2022/11/22 06:59:44;;;;;;;2.60;1.25;;;;;;;;;;5003140;28;20038;-44
2022/11/22 07:02:11;;;;;;;4.18;1.42;;;;;;;;;;5003555;28;20490;-44
2022/11/22 07:04:36;;;;;;;5.05;1.33;;;;;;;;;;5002892;28;20045;-48
2022/11/22 07:07:01;;;;;;;1.92;1.05;;;;;;;;;;5006577;28;20044;-43
2022/11/22 07:09:27;;;;;;;2.55;1.42;;;;;;;;;;5004347;28;20050;-49
2022/11/22 07:11:52;;;;;;;5.22;1.50;;;;;;;;;;5003435;28;20367;-47
2022/11/22 07:14:18;;;;;;;3.42;1.40;;;;;;;;;;5000722;28;20044;-44
2022/11/22 07:16:43;;;;;;;3.05;1.50;;;;;;;;;;5005495;28;20585;-47
2022/11/22 07:19:08;;;;;;;2.53;1.40;;;;;;;;;;5009801;28;20873;-45
2022/11/22 07:21:36;;;;;;;3.30;1.17;;;;;;;;;;5001898;28;20041;-45
2022/11/22 07:24:03;;;;;;;5.03;1.27;;;;;;;;;;5006546;28;20418;-43
2022/11/22 07:26:28;;;;;;;6.35;1.10;;;;;;;;;;5003711;28;20087;-45
2022/11/22 07:28:53;;;;;;;2.60;1.50;;;;;;;;;;5004978;28;20128;-45
2022/11/22 07:31:19;;;;;;;5.60;1.55;;;;;;;;;;5002168;28;20023;-49
2022/11/22 07:33:45;;;;;;;4.75;1.63;;;;;;;;;;4996229;28;20561;-44
2022/11/22 07:36:19;;;;;;;5.00;1.50;;;;;;;;;;5004447;28;20025;-45
2022/11/22 07:38:46;;;;;;;5.15;2.25;;;;;;;;;;5002372;28;20041;-47
2022/11/22 07:41:12;;;;;;;4.68;2.28;;;;;;;;;;5006519;28;20022;-44
2022/11/22 07:43:37;;;;;;;3.88;2.30;;;;;;;;;;5005881;28;20048;-50
2022/11/22 07:46:06;;;;;;;4.20;2.20;;;;;;;;;;5004546;28;20368;-45
2022/11/22 07:48:32;;;;;;;5.68;1.65;;;;;;;;;;5003952;28;20027;-43
2022/11/22 07:51:03;;;;;;;4.38;1.60;;;;;;;;;;5005199;28;20037;-46
2022/11/22 07:53:28;;;;;;;5.32;1.77;;;;;;;;;;5004873;28;20137;-45
2022/11/22 07:55:54;;;;;;;2.63;1.55;;;;;;;;;;5000675;28;20134;-47
2022/11/22 07:58:19;;;;;;;3.83;1.60;;;;;;;;;;5004346;28;20084;-46
2022/11/22 08:00:45;;;;;;;6.97;1.63;;;;;;;;;;5000025;28;20043;-45
2022/11/22 08:03:10;;;;;;;5.55;2.17;;;;;;;;;;5007168;28;20179;-44
2022/11/22 08:05:36;;;;;;;4.35;1.50;;;;;;;;;;5000096;28;20037;-45
2022/11/22 08:08:01;;;;;;;5.15;1.27;;;;;;;;;;5000214;28;20026;-44
2022/11/22 08:10:27;;;;;;;4.97;1.10;;;;;;;;;;4993594;28;20054;-45
2022/11/22 08:12:52;;;;;;;2.33;0.93;;;;;;;;;;5011539;28;20042;-43
2022/11/22 08:15:17;;;;;;;6.65;1.25;;;;;;;;;;5004870;28;20042;-44
2022/11/22 08:17:43;;;;;;;3.10;1.20;;;;;;;;;;5003620;28;20022;-44
2022/11/22 08:20:09;;;;;;;1.75;1.10;;;;;;;;;;5004261;28;20038;-44
2022/11/22 08:22:36;;;;;;;3.35;1.48;;;;;;;;;;5007914;28;20075;-46
2022/11/22 08:25:01;;;;;;;2.17;1.20;;;;;;;;;;5006286;28;20096;-47
2022/11/22 08:27:27;;;;;;;1.88;1.30;;;;;;;;;;5005185;28;20466;-47
2022/11/22 08:29:52;;;;;;;2.75;1.27;;;;;;;;;;5006403;28;20162;-43
2022/11/22 08:32:17;;;;;;;3.13;1.73;;;;;;;;;;5007331;28;20502;-44
2022/11/22 08:34:43;;;;;;;2.95;1.20;;;;;;;;;;5008147;28;20061;-47
2022/11/22 08:37:08;;;;;;;6.38;1.20;;;;;;;;;;5004323;28;20084;-44
2022/11/22 08:39:33;;;;;;;3.55;1.15;;;;;;;;;;5005337;28;20125;-45
2022/11/22 08:41:59;;;;;;;3.42;0.82;;;;;;;;;;5000950;28;20034;-44
2022/11/22 08:44:24;;;;;;;1.52;0.68;;;;;;;;;;5005425;28;20125;-44
2022/11/22 08:46:49;;;;;;;1.45;0.90;;;;;;;;;;5000013;28;20382;-45
2022/11/22 08:49:15;;;;;;;1.65;0.82;;;;;;;;;;4999308;28;20045;-44
2022/11/22 08:51:43;;;;;;;2.00;1.00;;;;;;;;;;4999237;28;20121;-46
2022/11/22 08:54:10;;;;;;;5.00;1.17;;;;;;;;;;4999432;28;20046;-43
2022/11/22 08:56:36;;;;;;;3.75;1.20;;;;;;;;;;4999548;28;20057;-47
2022/11/22 08:59:01;;;;;;;4.25;1.10;;;;;;;;;;4996891;28;20058;-45
2022/11/22 09:01:26;;;;;;;2.83;1.20;;;;;;;;;;5005330;28;20036;-44
2022/11/22 09:03:52;;;;;;;2.15;1.08;;;;;;;;;;5002449;28;20133;-45
2022/11/22 09:06:19;;;;;;;2.05;1.30;;;;;;;;;;5008281;28;20038;-44
2022/11/22 09:08:44;;;;;;;5.13;1.67;;;;;;;;;;5000145;28;20050;-44
2022/11/22 09:11:11;;;;;;;3.47;1.10;;;;;;;;;;5000564;28;20030;-47
2022/11/22 09:13:37;;;;;;;2.30;1.10;;;;;;;;;;5005466;28;20033;-42
2022/11/22 09:16:05;;;;;;;5.70;1.27;;;;;;;;;;4998345;28;20084;-45
2022/11/22 09:18:30;;;;;;;3.03;1.00;;;;;;;;;;4995549;28;20557;-44
2022/11/22 09:21:00;;;;;;;3.08;0.90;;;;;;;;;;4997892;28;20129;-44
2022/11/22 09:23:25;;;;;;;8.27;1.23;;;;;;;;;;5007211;28;20553;-44
2022/11/22 09:26:06;;;;;;;1.25;0.80;;;;;;;;;;5007286;28;20084;-47
2022/11/22 09:28:31;;;;;;;5.97;1.10;;;;;;;;;;4999275;28;20045;-41
2022/11/22 09:31:02;;;;;;;1.85;1.00;;;;;;;;;;5007952;28;20033;-45
2022/11/22 09:33:29;;;;;;;2.72;0.80;;;;;;;;;;5006072;28;20025;-49
2022/11/22 09:36:05;;;;;;;2.50;1.63;;;;;;;;;;5005310;28;20057;-47
2022/11/22 09:38:30;;;;;;;3.92;1.20;;;;;;;;;;5001666;28;20058;-45
2022/11/22 09:40:57;;;;;;;4.38;1.00;;;;;;;;;;5037255;28;20076;-44
2022/11/22 09:43:25;;;;;;;6.47;1.10;;;;;;;;;;4995685;28;20026;-46
2022/11/22 09:46:16;;;;;;;2.72;1.00;;;;;;;;;;4994971;28;20062;-44
2022/11/22 09:48:50;;;;;;;2.85;1.20;;;;;;;;;;5000343;28;20022;-44
2022/11/22 09:51:24;;;;;;;6.95;1.10;;;;;;;;;;5002643;28;20033;-44
2022/11/22 09:54:02;;;;;;;6.10;1.30;;;;;;;;;;5003628;28;20018;-43
2022/11/22 09:56:28;;;;;;;3.28;1.27;;;;;;;;;;5006228;28;20033;-45
2022/11/22 09:59:01;;;;;;;2.33;1.25;;;;;;;;;;5001664;28;20042;-45
2022/11/22 10:01:33;;;;;;;3.25;1.10;;;;;;;;;;5003564;28;20092;-43
2022/11/22 10:04:17;;;;;;;;;;;;;;;;;;4997811;28;20046;-50
2022/11/22 10:06:48;;;;;;;4.20;1.60;;;;;;;;;;5004837;28;19943;-45
2022/11/22 10:09:32;;;;;;;4.00;1.60;;;;;;;;;;5001252;28;20105;-48
2022/11/22 10:12:16;;;;;;;1.58;1.20;;;;;;;;;;4995436;28;20100;-47
2022/11/22 10:14:48;;;;;;;3.40;1.73;;;;;;;;;;5002684;28;20053;-45
2022/11/22 10:17:27;;;;;;;4.13;1.35;;;;;;;;;;4998451;28;20033;-46
2022/11/22 10:20:17;;;;;;;4.82;1.58;;;;;;;;;;5001939;28;20092;-45
2022/11/22 10:22:42;;;;;;;1.45;1.35;;;;;;;;;;5005836;28;20046;-47
2022/11/22 10:25:21;;;;;;;2.55;1.83;;;;;;;;;;4994865;28;20054;-46
2022/11/22 10:27:51;;;;;;;3.33;1.70;;;;;;;;;;5000550;28;20146;-46
2022/11/22 10:30:19;;;;;;;2.85;1.60;;;;;;;;;;4996223;28;20042;-46
2022/11/22 10:32:58;;;;;;;4.45;1.83;;;;;;;;;;5013207;28;20030;-44
2022/11/22 10:35:57;;;;;;;2.60;1.20;;;;;;;;;;5002893;28;20089;-47
2022/11/22 10:38:22;;;;;;;7.25;1.70;;;;;;;;;;5000691;28;20116;-48
2022/11/22 10:41:03;;;;;;;1.42;1.30;;;;;;;;;;5005602;28;20138;-45
2022/11/22 10:43:54;;;;;;;3.15;1.10;;;;;;;;;;5010744;28;20116;-46
2022/11/22 10:46:40;;;;;;;4.60;1.60;;;;;;;;;;5008789;28;20065;-44
2022/11/22 10:49:38;;;;;;;3.10;1.30;;;;;;;;;;5002191;28;20041;-44
2022/11/22 10:52:26;;;;;;;1.80;1.27;;;;;;;;;;4998821;28;20125;-44
2022/11/22 10:55:02;;;;;;;4.80;1.38;;;;;;;;;;5002924;28;20056;-44
2022/11/22 10:57:43;;;;;;;1.75;1.30;;;;;;;;;;4999868;28;20033;-44
2022/11/22 11:00:20;;;;;;;3.17;1.20;;;;;;;;;;4997048;28;20442;-50
2022/11/22 11:03:18;;;;;;;4.03;1.30;;;;;;;;;;5004253;28;20029;-46
2022/11/22 11:06:03;;;;;;;2.00;1.40;;;;;;;;;;4999787;28;20050;-47
2022/11/22 11:08:33;;;;;;;1.52;1.40;;;;;;;;;;5003183;28;20076;-49
2022/11/22 11:11:00;;;;;;;5.85;1.70;;;;;;;;;;5003043;28;20042;-45
2022/11/22 11:13:30;;;;;;;1.33;1.00;;;;;;;;;;5004224;28;20030;-44
2022/11/22 11:15:59;;;;;;;2.45;1.20;;;;;;;;;;4996852;28;20617;-46
2022/11/22 11:18:35;;;;;;;1.73;0.68;;;;;;;;;;5005702;28;20494;-44
2022/11/22 11:21:00;;;;;;;1.80;0.85;;;;;;;;;;5008138;28;20129;-48
2022/11/22 11:23:25;;;;;;;5.03;1.45;;;;;;;;;;5010197;28;20113;-47
2022/11/22 11:25:51;;;;;;;1.13;1.00;;;;;;;;;;5004501;28;20214;-47
2022/11/22 11:28:20;;;;;;;0.73;0.68;;;;;;;;;;5004714;28;20041;-46
2022/11/22 11:30:59;;;;;;;1.23;0.90;;;;;;;;;;5002087;28;20049;-44
2022/11/22 11:33:29;;;;;;;3.03;1.27;;;;;;;;;;4995775;28;20061;-46
2022/11/22 11:36:20;;;;;;;1.52;1.30;;;;;;;;;;5005418;28;20045;-45
2022/11/22 11:39:17;;;;;;;2.55;1.30;;;;;;;;;;4997656;28;20089;-45
2022/11/22 11:41:43;;;;;;;2.88;1.10;;;;;;;;;;5008937;28;20057;-44
2022/11/22 11:44:24;;;;;;;2.35;1.15;;;;;;;;;;5004221;28;20076;-44
2022/11/22 11:46:50;;;;;;;1.17;0.77;;;;;;;;;;5007104;28;20426;-46
2022/11/22 11:49:17;;;;;;;0.68;0.68;;;;;;;;;;5006223;28;20034;-46
2022/11/22 11:51:45;;;;;;;3.22;0.90;;;;;;;;;;5005977;28;20018;-44
2022/11/22 11:54:17;;;;;;;2.70;0.77;;;;;;;;;;4998342;28;20073;-47
2022/11/22 11:57:09;;;;;;;2.63;1.10;;;;;;;;;;5000516;28;20053;-50
2022/11/22 11:59:37;;;;;;;2.00;0.90;;;;;;;;;;5009768;28;20073;-49
2022/11/22 12:02:14;;;;;;;1.48;0.93;;;;;;;;;;5009057;28;20030;-44
2022/11/22 12:04:48;;;;;;;0.82;0.82;;;;;;;;;;5003325;28;20038;-45
2022/11/22 12:07:26;;;;;;;2.00;1.05;;;;;;;;;;5000567;28;20108;-44
2022/11/22 12:09:54;;;;;;;1.85;1.02;;;;;;;;;;4999658;28;20038;-44
2022/11/22 12:12:44;;;;;;;1.73;1.17;;;;;;;;;;5000337;28;20109;-44
2022/11/22 12:15:18;;;;;;;1.40;1.23;;;;;;;;;;5005950;28;20475;-44
2022/11/22 12:17:57;;;;;;;2.60;1.15;;;;;;;;;;5007376;28;20042;-44
2022/11/22 12:20:41;;;;;;;1.75;1.10;;;;;;;;;;5000665;28;20030;-47
2022/11/22 12:23:31;;;;;;;1.90;0.93;;;;;;;;;;4998123;28;20034;-46
2022/11/22 12:25:57;;;;;;;10.05;1.00;;;;;;;;;;4998015;28;20058;-46
2022/11/22 12:28:26;;;;;;;3.30;1.08;;;;;;;;;;5004853;28;20608;-44
2022/11/22 12:31:03;;;;;;;6.18;1.50;;;;;;;;;;4997085;28;20057;-44
2022/11/22 12:33:38;;;;;;;1.63;0.90;;;;;;;;;;5002354;28;20492;-44
2022/11/22 12:36:20;;;;;;;0.95;0.90;;;;;;;;;;5004904;28;20064;-44
2022/11/22 12:38:48;;;;;;;1.60;1.00;;;;;;;;;;4999792;28;20038;-46
2022/11/22 12:41:16;;;;;;;3.58;1.10;;;;;;;;;;5001718;28;20451;-45
2022/11/22 12:43:48;;;;;;;1.45;1.02;;;;;;;;;;5004650;28;20025;-46
2022/11/22 12:46:24;;;;;;;4.95;1.70;;;;;;;;;;4997379;28;20105;-44
2022/11/22 12:49:03;;;;;;;4.78;1.80;;;;;;;;;;5005971;28;20502;-44
2022/11/22 12:51:50;;;;;;;3.10;0.77;;;;;;;;;;4997544;28;20025;-46
2022/11/22 12:54:26;;;;;;;2.35;1.30;;;;;;;;;;4998490;28;20065;-44
2022/11/22 12:56:59;;;;;;;1.75;1.17;;;;;;;;;;5006962;28;20536;-45
2022/11/22 12:59:42;;;;;;;2.20;1.15;;;;;;;;;;4994502;28;20042;-50
2022/11/22 13:02:16;;;;;;;1.05;0.80;;;;;;;;;;5008114;28;20018;-50
2022/11/22 13:04:52;;;;;;;3.67;1.27;;;;;;;;;;5005780;28;20183;-46
2022/11/22 13:07:25;;;;;;;1.38;0.68;;;;;;;;;;5003900;28;20031;-47
2022/11/22 13:10:00;;;;;;;1.77;1.00;;;;;;;;;;5003247;28;20573;-44
2022/11/22 13:12:32;;;;;;;4.70;1.63;;;;;;;;;;4997681;28;20044;-46
2022/11/22 13:14:58;;;;;;;2.08;1.45;;;;;;;;;;5002795;28;20046;-45
2022/11/22 13:17:25;;;;;;;2.47;1.33;;;;;;;;;;4995265;28;20117;-44
2022/11/22 13:20:33;;;;;;;2.88;2.22;;;;;;;;;;5006101;28;20038;-43
2022/11/22 13:23:25;;;;;;;3.85;2.47;;;;;;;;;;5007292;28;20096;-46
2022/11/22 13:26:04;;;;;;;4.22;1.70;;;;;;;;;;5005704;28;20093;-44
2022/11/22 13:28:35;;;;;;;3.53;1.30;;;;;;;;;;5002456;28;20488;-46
2022/11/22 13:31:08;;;;;;;5.63;1.40;;;;;;;;;;4998502;28;20487;-46
2022/11/22 13:33:36;;;;;;;2.70;1.63;;;;;;;;;;5005828;28;20066;-44
2022/11/22 13:36:23;;;;;;;3.47;1.88;;;;;;;;;;5003234;28;20118;-46
2022/11/22 13:38:51;;;;;;;2.67;1.50;;;;;;;;;;5004276;28;20089;-45
2022/11/22 13:41:29;;;;;;;2.13;1.60;;;;;;;;;;5006805;28;20052;-45
2022/11/22 13:43:56;;;;;;;2.53;2.00;;;;;;;;;;5001365;28;20042;-45
2022/11/22 13:46:56;;;;;;;4.53;2.28;;;;;;;;;;5005901;28;20049;-43
2022/11/22 13:49:30;;;;;;;3.60;2.25;;;;;;;;;;5004649;28;20042;-49
2022/11/22 13:52:00;;;;;;;6.70;2.65;;;;;;;;;;5005863;28;20046;-49
2022/11/22 13:54:31;;;;;;;4.55;1.48;;;;;;;;;;5005954;28;20041;-47
2022/11/22 13:57:02;;;;;;;4.88;1.45;;;;;;;;;;4998207;28;20099;-50
2022/11/22 13:59:27;;;;;;;4.95;1.52;;;;;;;;;;5001079;28;20061;-45
2022/11/22 14:01:55;;;;;;;3.63;1.35;;;;;;;;;;4998387;28;20097;-44
2022/11/22 14:04:24;;;;;;;3.58;0.95;;;;;;;;;;5005323;28;20038;-44
2022/11/22 14:07:04;;;;;;;3.90;1.90;;;;;;;;;;5010845;28;20026;-47
2022/11/22 14:09:43;;;;;;;5.20;2.25;;;;;;;;;;5002787;28;20495;-45
2022/11/22 14:12:44;;;;;;;5.13;2.80;;;;;;;;;;5000607;28;20057;-45
2022/11/22 14:16:05;;;;;;;5.90;2.47;;;;;;;;;;5005450;28;20045;-44
2022/11/22 14:18:31;;;;;;;4.45;1.92;;;;;;;;;;5008082;28;20030;-40
2022/11/22 14:21:07;;;;;;;5.38;3.17;;;;;;;;;;5010378;28;20057;-45
2022/11/22 14:23:41;;;;;;;4.97;3.17;;;;;;;;;;4999826;28;20738;-46
2022/11/22 14:26:15;;;;;;;1.40;1.25;;;;;;;;;;5003654;28;20140;-46
2022/11/22 14:28:59;;;;;;;2.45;1.40;;;;;;;;;;5005137;28;20045;-48
2022/11/22 14:31:28;;;;;;;1.58;1.15;;;;;;;;;;5005827;28;20382;-44
2022/11/22 14:34:20;;;;;;;3.65;2.00;;;;;;;;;;5008834;28;20045;-45
2022/11/22 14:37:14;;;;;;;10.48;6.70;;;;;;;;;;5010713;28;20552;-46
2022/11/22 14:39:52;;;;;;;6.25;3.08;;;;;;;;;;5002584;28;20113;-47
2022/11/22 14:42:35;;;;;;;5.95;4.47;;;;;;;;;;5010238;28;20025;-45
2022/11/22 14:45:09;;;;;;;2.28;2.00;;;;;;;;;;5004828;28;20042;-46
2022/11/22 14:47:42;;;;;;;2.72;1.98;;;;;;;;;;5007191;28;20037;-50
2022/11/22 14:50:16;;;;;;;3.25;2.10;;;;;;;;;;5009665;28;20061;-44
2022/11/22 14:52:43;;;;;;;3.67;1.63;;;;;;;;;;5002812;28;20038;-45
2022/11/22 14:55:15;;;;;;;4.60;2.80;;;;;;;;;;5000393;28;20034;-45
2022/11/22 14:57:41;;;;;;;;;;;;;;;;;;5006502;28;20494;-44
2022/11/22 15:00:13;;;;;;;4.28;2.22;;;;;;;;;;5011878;28;19921;-48
2022/11/22 15:02:59;;;;;;;8.85;3.13;;;;;;;;;;5001579;28;20048;-47
2022/11/22 15:05:43;;;;;;;5.38;3.90;;;;;;;;;;4996889;28;20114;-45
2022/11/22 15:08:30;;;;;;;9.00;2.80;;;;;;;;;;5000005;28;20025;-45
2022/11/22 15:11:17;;;;;;;4.13;2.45;;;;;;;;;;5005646;28;20042;-47
2022/11/22 15:14:20;;;;;;;3.40;2.38;;;;;;;;;;5001580;28;20414;-44
2022/11/22 15:16:50;;;;;;;7.35;1.85;;;;;;;;;;5000975;28;20046;-46